Time;durP1;ratioP1;P1;durP2;ratioP2;P2;SDS_P1;SDS_P2;PMS_P1;PMS_P2;Temp;Humidity;BMP_temperature;BMP_pressure;BME280_temperature;BME280_humidity;BME280_pressure;Samples;Min_cycle;Max_cycle;Signal;HPM_P1;HPM_P2
2022/11/24 00:01:42;;;;;;;9.33;5.90;;;5.00;99.90;;;;;;5138955;28;20270;-79
2022/11/24 00:04:12;;;;;;;7.87;5.10;;;5.00;99.90;;;;;;5139127;28;20214;-79
2022/11/24 00:06:43;;;;;;;8.03;5.20;;;5.00;99.90;;;;;;5139345;28;20270;-79
2022/11/24 00:09:12;;;;;;;11.27;5.27;;;5.10;99.90;;;;;;5156357;27;20262;-78
2022/11/24 00:11:41;;;;;;;9.63;4.67;;;5.10;99.90;;;;;;5156598;27;20209;-78
2022/11/24 00:14:10;;;;;;;10.67;4.53;;;5.20;99.90;;;;;;5159456;27;20265;-77
2022/11/24 00:16:39;;;;;;;8.40;4.83;;;5.30;99.90;;;;;;5157049;27;20239;-81
2022/11/24 00:19:08;;;;;;;11.80;4.50;;;5.30;99.90;;;;;;5138018;28;20317;-78
2022/11/24 00:21:41;;;;;;;7.47;4.30;;;5.40;99.90;;;;;;5140024;28;20189;-80
2022/11/24 00:24:10;;;;;;;7.03;3.63;;;5.50;99.90;;;;;;5139317;28;20292;-78
2022/11/24 00:26:38;;;;;;;8.87;3.83;;;5.50;99.90;;;;;;5138432;27;20206;-76
2022/11/24 00:29:09;;;;;;;8.60;3.30;;;5.60;99.90;;;;;;5138741;28;20206;-78
2022/11/24 00:31:38;;;;;;;8.63;3.50;;;5.60;99.90;;;;;;5137641;28;20190;-79
2022/11/24 00:34:10;;;;;;;6.53;3.37;;;5.60;99.90;;;;;;5136875;28;20222;-78
2022/11/24 00:36:39;;;;;;;7.27;3.30;;;5.60;99.90;;;;;;5139422;27;20203;-79
2022/11/24 00:39:11;;;;;;;12.07;3.40;;;5.60;99.90;;;;;;5139102;28;20232;-79
2022/11/24 00:41:40;;;;;;;6.87;3.10;;;5.70;99.90;;;;;;5138630;28;20196;-78
2022/11/24 00:44:09;;;;;;;8.07;3.30;;;5.70;99.90;;;;;;5138897;28;20229;-80
2022/11/24 00:46:38;;;;;;;8.40;3.50;;;5.80;99.90;;;;;;5138219;27;20201;-76
2022/11/24 00:49:07;;;;;;;7.30;3.47;;;5.80;99.90;;;;;;5138559;28;20214;-78
2022/11/24 00:51:35;;;;;;;6.63;3.40;;;5.80;99.90;;;;;;5146335;27;20501;-78
2022/11/24 00:54:05;;;;;;;7.77;3.10;;;5.80;99.90;;;;;;5143610;27;20214;-80
2022/11/24 00:56:33;;;;;;;9.90;3.07;;;5.80;99.90;;;;;;5121445;28;20267;-80
2022/11/24 00:59:01;;;;;;;6.13;3.30;;;5.80;99.90;;;;;;5133632;28;20197;-79
2022/11/24 01:01:31;;;;;;;7.77;3.13;;;5.90;99.90;;;;;;5135744;27;20265;-78
2022/11/24 01:04:01;;;;;;;6.33;3.10;;;5.80;99.90;;;;;;5137148;28;20195;-77
2022/11/24 01:06:31;;;;;;;5.80;3.10;;;5.90;99.90;;;;;;5137412;28;20209;-78
2022/11/24 01:08:59;;;;;;;7.57;3.27;;;5.90;99.90;;;;;;5135524;28;20648;-81
2022/11/24 01:11:59;;;;;;;7.20;3.00;;;5.80;99.90;;;;;;5129045;28;20206;-78
2022/11/24 01:14:18;;;;;;;8.43;3.17;;;5.80;99.90;;;;;;5130189;28;20193;-80
2022/11/24 01:16:48;;;;;;;5.73;3.07;;;5.80;99.90;;;;;;5140753;27;20186;-78
2022/11/24 01:19:16;;;;;;;9.90;3.13;;;5.90;99.90;;;;;;5158050;27;20208;-79
2022/11/24 01:21:45;;;;;;;7.60;2.97;;;5.90;99.90;;;;;;5158306;27;20252;-79
2022/11/24 01:24:13;;;;;;;11.27;3.33;;;5.90;99.90;;;;;;5157949;27;20280;-77
2022/11/24 01:26:42;;;;;;;7.67;3.07;;;5.90;99.90;;;;;;5138835;27;20222;-79
2022/11/24 01:29:11;;;;;;;7.60;3.00;;;5.90;99.90;;;;;;5137559;28;20197;-79
2022/11/24 01:31:39;;;;;;;10.30;3.00;;;5.90;99.90;;;;;;5137718;28;20245;-78
2022/11/24 01:34:09;;;;;;;9.03;2.63;;;5.90;99.90;;;;;;5137754;28;20202;-75
2022/11/24 01:36:37;;;;;;;7.73;2.60;;;5.90;99.90;;;;;;5138500;28;20262;-79
2022/11/24 01:39:06;;;;;;;6.70;2.53;;;5.90;99.90;;;;;;5138002;28;20187;-79
2022/11/24 01:41:35;;;;;;;7.90;2.90;;;5.90;99.90;;;;;;5137836;28;20214;-78
2022/11/24 01:44:22;;;;;;;7.07;3.07;;;5.90;99.90;;;;;;5137640;27;20270;-80
2022/11/24 01:46:53;;;;;;;9.63;2.70;;;5.90;99.90;;;;;;5137565;28;20170;-76
2022/11/24 01:49:36;;;;;;;8.40;2.90;;;5.80;99.90;;;;;;5137665;27;20179;-79
2022/11/24 01:52:11;;;;;;;7.83;2.93;;;5.90;99.90;;;;;;5127556;27;20209;-80
2022/11/24 01:54:44;;;;;;;10.03;2.70;;;5.80;99.90;;;;;;5131742;28;20218;-75
2022/11/24 01:57:22;;;;;;;6.53;2.97;;;5.90;99.90;;;;;;5136356;28;20171;-78
2022/11/24 01:59:53;;;;;;;7.40;2.77;;;5.80;99.90;;;;;;5136124;28;20272;-79
2022/11/24 02:02:23;;;;;;;7.50;2.97;;;5.90;99.90;;;;;;5136144;28;20230;-79
2022/11/24 02:04:52;;;;;;;8.10;3.00;;;5.70;99.90;;;;;;5135633;28;20223;-79
2022/11/24 02:07:20;;;;;;;11.20;3.00;;;5.70;99.90;;;;;;5136321;28;20190;-78
2022/11/24 02:09:52;;;;;;;8.83;3.10;;;5.70;99.90;;;;;;5151995;27;20268;-78
2022/11/24 02:12:22;;;;;;;10.20;2.90;;;5.70;99.90;;;;;;5157044;27;20250;-79
2022/11/24 02:14:53;;;;;;;5.43;3.10;;;5.80;99.90;;;;;;5156828;27;20206;-78
2022/11/24 02:17:21;;;;;;;10.00;3.53;;;5.70;99.90;;;;;;5153262;27;20186;-80
2022/11/24 02:19:54;;;;;;;9.77;3.57;;;5.70;99.90;;;;;;5137280;28;20182;-82
2022/11/24 02:22:36;;;;;;;7.70;3.47;;;5.70;99.90;;;;;;5136917;28;20181;-81
2022/11/24 02:25:12;;;;;;;7.77;3.70;;;5.80;99.90;;;;;;5136810;28;20225;-81
2022/11/24 02:27:44;;;;;;;8.20;3.30;;;5.70;99.90;;;;;;5136546;28;20289;-78
2022/11/24 02:30:20;;;;;;;10.83;3.63;;;5.70;99.90;;;;;;5137400;28;20254;-80
2022/11/24 02:32:52;;;;;;;10.87;3.50;;;5.60;99.90;;;;;;5136854;28;20210;-80
2022/11/24 02:35:21;;;;;;;10.13;3.60;;;5.60;99.90;;;;;;5136407;28;20197;-80
2022/11/24 02:37:49;;;;;;;7.07;3.47;;;5.60;99.90;;;;;;5136784;28;20198;-79
2022/11/24 02:40:23;;;;;;;7.27;3.33;;;5.50;99.90;;;;;;5137268;28;20286;-80
2022/11/24 02:42:57;;;;;;;8.67;3.60;;;5.50;99.90;;;;;;5135156;28;20232;-80
2022/11/24 02:45:27;;;;;;;9.67;3.40;;;5.50;99.90;;;;;;5145559;28;20288;-82
2022/11/24 02:47:55;;;;;;;8.93;3.17;;;5.50;99.90;;;;;;5140126;28;20549;-79
2022/11/24 02:50:27;;;;;;;6.47;3.13;;;5.40;99.90;;;;;;5138693;28;20208;-79
2022/11/24 02:52:55;;;;;;;7.13;3.10;;;5.40;99.90;;;;;;5134065;28;20766;-76
2022/11/24 02:55:23;;;;;;;9.63;3.20;;;5.50;99.90;;;;;;5117295;28;20229;-80
2022/11/24 02:57:51;;;;;;;9.03;2.80;;;5.40;99.90;;;;;;5117849;28;20206;-77
2022/11/24 03:00:21;;;;;;;6.33;3.00;;;5.40;99.90;;;;;;5117837;28;20232;-78
2022/11/24 03:02:50;;;;;;;6.73;2.43;;;5.40;99.90;;;;;;5125740;27;20213;-78
2022/11/24 03:05:18;;;;;;;7.33;2.90;;;5.50;99.90;;;;;;5139407;27;20220;-77
2022/11/24 03:07:48;;;;;;;7.10;2.90;;;5.50;99.90;;;;;;5121451;28;20202;-79
2022/11/24 03:10:17;;;;;;;7.23;2.23;;;5.50;99.90;;;;;;5123756;28;20217;-78
2022/11/24 03:12:46;;;;;;;6.00;2.50;;;5.50;99.90;;;;;;5128556;28;20205;-77
2022/11/24 03:15:14;;;;;;;6.97;2.50;;;5.50;99.90;;;;;;5121381;27;20210;-78
2022/11/24 03:17:44;;;;;;;7.90;2.37;;;5.40;99.90;;;;;;5120838;28;20218;-79
2022/11/24 03:20:13;;;;;;;13.40;3.20;;;5.50;99.90;;;;;;5111179;28;20220;-80
2022/11/24 03:22:41;;;;;;;6.83;2.20;;;5.40;99.90;;;;;;5118788;28;20217;-76
2022/11/24 03:25:10;;;;;;;7.70;2.40;;;5.50;99.90;;;;;;5119344;27;20210;-75
2022/11/24 03:27:38;;;;;;;7.67;1.93;;;5.40;99.90;;;;;;5120181;28;20241;-80
2022/11/24 03:30:11;;;;;;;6.80;1.93;;;5.40;99.90;;;;;;5118670;28;20230;-75
2022/11/24 03:32:40;;;;;;;4.70;2.00;;;5.40;99.90;;;;;;5116936;28;20210;-80
2022/11/24 03:35:10;;;;;;;8.40;2.03;;;5.30;99.90;;;;;;5117724;28;20213;-80
2022/11/24 03:37:39;;;;;;;5.60;1.50;;;5.20;99.90;;;;;;5127877;28;20229;-79
2022/11/24 03:40:07;;;;;;;5.40;1.70;;;5.30;99.90;;;;;;5128609;28;20210;-78
2022/11/24 03:42:36;;;;;;;5.37;1.60;;;5.30;99.90;;;;;;5123767;28;20218;-76
2022/11/24 03:45:04;;;;;;;5.10;2.10;;;5.40;99.90;;;;;;5121022;28;20201;-78
2022/11/24 03:47:53;;;;;;;3.47;1.40;;;5.20;99.90;;;;;;5131239;27;20292;-79
2022/11/24 03:50:22;;;;;;;5.10;1.60;;;5.20;99.90;;;;;;5137868;27;20288;-77
2022/11/24 03:52:50;;;;;;;5.03;1.50;;;5.20;99.90;;;;;;5137386;27;20675;-77
2022/11/24 03:55:18;;;;;;;4.80;1.53;;;5.20;99.90;;;;;;5136508;28;20258;-77
2022/11/24 03:57:47;;;;;;;6.17;1.80;;;5.20;99.90;;;;;;5129788;28;20644;-78
2022/11/24 04:00:17;;;;;;;4.83;1.80;;;5.20;99.90;;;;;;5116181;28;20220;-79
2022/11/24 04:02:46;;;;;;;4.00;1.30;;;5.20;99.90;;;;;;5116491;28;20225;-78
2022/11/24 04:05:15;;;;;;;3.90;1.37;;;5.30;99.90;;;;;;5117233;28;20226;-77
2022/11/24 04:07:45;;;;;;;4.70;1.47;;;5.40;99.90;;;;;;5120464;28;20213;-74
2022/11/24 04:10:14;;;;;;;5.97;1.43;;;5.40;99.90;;;;;;5122090;28;20202;-77
2022/11/24 04:12:43;;;;;;;4.73;1.70;;;5.40;99.90;;;;;;5115833;28;20233;-74
2022/11/24 04:15:13;;;;;;;2.03;1.27;;;5.40;99.90;;;;;;5116097;28;20222;-78
2022/11/24 04:17:43;;;;;;;4.03;1.50;;;5.50;99.90;;;;;;5120215;28;20574;-75
2022/11/24 04:20:12;;;;;;;3.73;1.40;;;5.50;99.90;;;;;;5117584;28;20297;-75
2022/11/24 04:22:41;;;;;;;4.23;1.57;;;5.50;99.90;;;;;;5116569;28;20245;-75
2022/11/24 04:25:11;;;;;;;5.43;1.77;;;5.40;99.90;;;;;;5116171;28;20205;-75
2022/11/24 04:27:40;;;;;;;3.90;1.60;;;5.50;99.90;;;;;;5115676;28;20218;-78
2022/11/24 04:30:09;;;;;;;3.63;1.50;;;5.50;99.90;;;;;;5115817;28;20221;-77
2022/11/24 04:32:37;;;;;;;4.27;1.50;;;5.50;99.90;;;;;;5115977;28;20233;-76
2022/11/24 04:35:07;;;;;;;3.83;1.40;;;5.50;99.90;;;;;;5114847;28;20209;-75
2022/11/24 04:37:35;;;;;;;4.23;1.50;;;5.50;99.90;;;;;;5115246;28;20202;-78
2022/11/24 04:40:05;;;;;;;4.10;1.40;;;5.50;99.90;;;;;;5114544;28;20232;-78
2022/11/24 04:42:35;;;;;;;5.13;1.60;;;5.50;99.90;;;;;;5114791;28;20234;-77
2022/11/24 04:45:04;;;;;;;3.80;1.40;;;5.50;99.90;;;;;;5114803;28;20585;-78
2022/11/24 04:47:32;;;;;;;3.93;1.57;;;5.50;99.90;;;;;;5136439;28;20210;-78
2022/11/24 04:50:01;;;;;;;4.70;1.53;;;5.50;99.90;;;;;;5136104;28;20205;-77
2022/11/24 04:52:30;;;;;;;3.65;1.50;;;5.50;99.90;;;;;;5079167;28;1303589;-79
2022/11/24 04:54:59;;;;;;;4.53;1.30;;;5.50;99.90;;;;;;5116714;28;20214;-77
2022/11/24 04:57:27;;;;;;;3.73;1.47;;;5.60;99.90;;;;;;5116542;28;20652;-78
2022/11/24 04:59:56;;;;;;;5.13;1.60;;;5.60;99.90;;;;;;5116868;28;20213;-79
2022/11/24 05:02:25;;;;;;;3.80;1.50;;;5.60;99.90;;;;;;5116584;28;20755;-80
2022/11/24 05:04:53;;;;;;;3.00;1.50;;;5.60;99.90;;;;;;5117421;28;20198;-78
2022/11/24 05:07:21;;;;;;;3.70;1.50;;;5.50;99.90;;;;;;5115897;28;20218;-76
2022/11/24 05:12:35;;;;;;;3.67;1.47;;;5.60;99.90;;;;;;5136016;27;20208;-79
2022/11/24 05:15:06;;;;;;;7.10;1.47;;;5.60;99.90;;;;;;5135908;27;20205;-74
2022/11/24 05:17:36;;;;;;;6.67;1.50;;;5.70;99.90;;;;;;5135918;27;20628;-78
2022/11/24 05:20:06;;;;;;;5.90;1.47;;;5.60;99.90;;;;;;5135074;27;20201;-78
2022/11/24 05:22:34;;;;;;;3.63;1.53;;;5.70;99.90;;;;;;5134834;27;20224;-77
2022/11/24 05:25:03;;;;;;;3.93;1.57;;;5.70;99.90;;;;;;5135094;27;20245;-77
2022/11/24 05:27:31;;;;;;;3.23;1.50;;;5.60;99.90;;;;;;5135660;27;20350;-77
2022/11/24 05:29:59;;;;;;;4.97;1.60;;;5.70;99.90;;;;;;5120348;27;20207;-78
2022/11/24 05:32:28;;;;;;;5.87;1.80;;;5.70;99.90;;;;;;5114413;28;20634;-78
2022/11/24 05:34:57;;;;;;;4.10;1.67;;;5.70;99.90;;;;;;5114787;28;20206;-76
2022/11/24 05:37:25;;;;;;;3.30;1.40;;;5.70;99.90;;;;;;5114060;28;20632;-77
2022/11/24 05:39:54;;;;;;;4.93;1.73;;;5.70;99.90;;;;;;5128098;27;20209;-78
2022/11/24 05:42:40;;;;;;;5.17;1.67;;;5.60;99.90;;;;;;5134975;27;20213;-76
2022/11/24 05:45:16;;;;;;;6.40;1.70;;;5.70;99.90;;;;;;5134769;27;20316;-76
2022/11/24 05:47:46;;;;;;;3.93;1.50;;;5.70;99.90;;;;;;5132869;27;20236;-75
2022/11/24 05:50:17;;;;;;;3.23;1.50;;;5.70;99.90;;;;;;5114380;28;20194;-75
2022/11/24 05:52:46;;;;;;;4.30;1.70;;;5.70;99.90;;;;;;5113947;28;20202;-75
2022/11/24 05:55:15;;;;;;;5.03;1.80;;;5.80;99.90;;;;;;5114486;28;20218;-77
2022/11/24 05:57:43;;;;;;;5.90;1.77;;;5.80;99.90;;;;;;5116909;27;20205;-76
2022/11/24 06:00:13;;;;;;;5.40;1.77;;;5.80;99.90;;;;;;5118784;27;20206;-77
2022/11/24 06:02:41;;;;;;;4.33;1.73;;;5.90;99.90;;;;;;5113457;28;20560;-76
2022/11/24 06:05:16;;;;;;;5.10;1.80;;;5.80;99.90;;;;;;5113743;28;20206;-74
2022/11/24 06:07:45;;;;;;;3.17;1.77;;;5.80;99.90;;;;;;5113307;28;20178;-74
2022/11/24 06:10:14;;;;;;;5.47;1.70;;;5.80;99.90;;;;;;5132160;27;20210;-76
2022/11/24 06:12:42;;;;;;;5.97;1.77;;;5.90;99.90;;;;;;5113669;28;20232;-73
2022/11/24 06:15:11;;;;;;;8.17;2.07;;;5.90;99.90;;;;;;5121627;27;20198;-75
2022/11/24 06:17:40;;;;;;;5.27;2.63;;;5.90;99.90;;;;;;5134128;27;20662;-77
2022/11/24 06:20:09;;;;;;;4.97;2.13;;;5.90;99.90;;;;;;5113897;28;20695;-75
2022/11/24 06:22:39;;;;;;;8.83;2.23;;;6.00;99.90;;;;;;5123180;27;20221;-77
2022/11/24 06:25:09;;;;;;;8.50;2.00;;;5.90;99.90;;;;;;5134127;27;20208;-76
2022/11/24 06:27:37;;;;;;;5.43;2.10;;;5.90;99.90;;;;;;5122494;27;20233;-76
2022/11/24 06:30:06;;;;;;;7.03;1.87;;;5.90;99.90;;;;;;5113602;28;20213;-78
2022/11/24 06:32:34;;;;;;;8.20;2.10;;;6.00;99.90;;;;;;5113158;28;20288;-79
2022/11/24 06:35:03;;;;;;;9.77;2.70;;;6.00;99.90;;;;;;5127828;27;20209;-75
2022/11/24 06:37:31;;;;;;;7.60;2.17;;;6.00;99.90;;;;;;5116355;27;20212;-76
2022/11/24 06:40:01;;;;;;;6.40;2.63;;;6.00;99.90;;;;;;5113336;28;20210;-78
2022/11/24 06:42:32;;;;;;;7.47;2.10;;;6.00;99.90;;;;;;5115364;27;20230;-74
2022/11/24 06:45:00;;;;;;;9.00;2.20;;;6.00;99.90;;;;;;5125779;27;20297;-74
2022/11/24 06:47:36;;;;;;;8.07;2.27;;;6.00;99.90;;;;;;5114441;28;20197;-78
2022/11/24 06:50:05;;;;;;;8.30;2.30;;;6.10;99.90;;;;;;5116112;28;20308;-78
2022/11/24 06:52:33;;;;;;;9.43;2.50;;;6.00;99.90;;;;;;5118668;28;20220;-77
2022/11/24 06:55:03;;;;;;;8.83;2.30;;;6.10;99.90;;;;;;5113012;28;20206;-76
2022/11/24 06:57:31;;;;;;;7.40;2.27;;;6.10;99.90;;;;;;5113466;28;20218;-76
2022/11/24 06:59:59;;;;;;;11.00;2.20;;;6.20;99.90;;;;;;5115493;28;20279;-78
2022/11/24 07:02:27;;;;;;;7.87;2.20;;;6.20;99.90;;;;;;5114124;28;20229;-78
2022/11/24 07:04:55;;;;;;;8.30;2.00;;;6.20;99.90;;;;;;5112728;28;20225;-76
2022/11/24 07:07:24;;;;;;;10.17;2.93;;;6.20;99.90;;;;;;5113715;28;20210;-77
2022/11/24 07:09:52;;;;;;;11.00;2.40;;;6.30;99.90;;;;;;5112970;28;20248;-76
2022/11/24 07:12:25;;;;;;;9.03;2.20;;;6.30;99.90;;;;;;5111860;28;20635;-77
2022/11/24 07:14:54;;;;;;;7.13;2.17;;;6.30;99.90;;;;;;5113291;28;20210;-76
2022/11/24 07:17:22;;;;;;;11.43;2.17;;;6.30;99.90;;;;;;5114107;28;20452;-77
2022/11/24 07:19:50;;;;;;;8.90;2.30;;;6.30;99.90;;;;;;5133869;28;20215;-77
2022/11/24 07:22:18;;;;;;;9.83;2.80;;;6.30;99.90;;;;;;5132666;28;20296;-75
2022/11/24 07:24:48;;;;;;;8.10;1.90;;;6.30;99.90;;;;;;5133056;28;20294;-75
2022/11/24 07:27:16;;;;;;;7.63;1.93;;;6.40;99.90;;;;;;5123510;28;20222;-76
2022/11/24 07:29:46;;;;;;;10.93;2.97;;;6.40;99.90;;;;;;5112193;28;20216;-77
2022/11/24 07:32:19;;;;;;;12.73;2.47;;;6.50;99.90;;;;;;5112286;28;20217;-74
2022/11/24 07:34:47;;;;;;;10.57;2.53;;;6.50;99.90;;;;;;5105463;27;20237;-77
2022/11/24 07:37:16;;;;;;;13.40;2.40;;;6.60;99.90;;;;;;5125858;28;20225;-76
2022/11/24 07:39:44;;;;;;;11.40;3.33;;;6.70;99.90;;;;;;5128421;28;20558;-77
2022/11/24 07:42:13;;;;;;;14.60;4.73;;;6.80;99.90;;;;;;5130023;28;20458;-77
2022/11/24 07:44:41;;;;;;;12.77;3.13;;;6.90;99.90;;;;;;5117830;28;20229;-76
2022/11/24 07:47:10;;;;;;;11.77;5.57;;;7.00;99.90;;;;;;5114299;28;20562;-75
2022/11/24 07:49:38;;;;;;;9.17;4.37;;;6.90;99.90;;;;;;5115950;28;20202;-75
2022/11/24 07:52:08;;;;;;;13.77;6.00;;;7.00;99.90;;;;;;5115913;28;20617;-80
2022/11/24 07:54:36;;;;;;;12.80;2.77;;;7.00;99.90;;;;;;5116659;28;20206;-75
2022/11/24 07:57:04;;;;;;;11.83;3.43;;;7.10;99.90;;;;;;5129127;27;20208;-77
2022/11/24 07:59:34;;;;;;;10.10;2.67;;;7.30;99.90;;;;;;5136367;27;20409;-75
2022/11/24 08:02:02;;;;;;;8.83;2.43;;;7.70;99.90;;;;;;5133144;27;20706;-78
2022/11/24 08:04:32;;;;;;;10.80;2.33;;;7.80;99.90;;;;;;5127995;27;20226;-77
2022/11/24 08:07:01;;;;;;;7.70;2.20;;;8.10;99.90;;;;;;5133963;27;20262;-75
2022/11/24 08:09:30;;;;;;;11.07;2.50;;;8.50;99.90;;;;;;5136198;27;20211;-76
2022/11/24 08:11:59;;;;;;;10.87;2.30;;;8.80;99.90;;;;;;5130021;27;20225;-75
2022/11/24 08:14:27;;;;;;;8.47;2.20;;;8.90;99.90;;;;;;5124722;27;20255;-78
2022/11/24 08:16:55;;;;;;;8.50;2.33;;;9.10;99.90;;;;;;5125511;27;20552;-78
2022/11/24 08:19:23;;;;;;;8.27;2.13;;;9.10;99.90;;;;;;5136904;27;20206;-78
2022/11/24 08:21:53;;;;;;;7.60;2.43;;;9.20;99.90;;;;;;5136681;27;20288;-77
2022/11/24 08:24:21;;;;;;;7.17;2.03;;;9.30;99.90;;;;;;5132945;27;20221;-75
2022/11/24 08:26:49;;;;;;;10.33;2.27;;;10.00;99.90;;;;;;5135841;27;20316;-74
2022/11/24 08:29:17;;;;;;;7.63;2.50;;;9.90;99.90;;;;;;5136259;27;20208;-78
2022/11/24 08:31:45;;;;;;;8.27;2.13;;;10.10;99.90;;;;;;5134727;27;20201;-79
2022/11/24 08:34:13;;;;;;;7.03;2.20;;;10.80;99.90;;;;;;5120876;27;20287;-77
2022/11/24 08:36:42;;;;;;;6.33;2.10;;;11.30;99.90;;;;;;5134224;27;20202;-76
2022/11/24 08:39:12;;;;;;;8.43;2.40;;;11.30;99.90;;;;;;5135878;27;20292;-75
2022/11/24 08:41:40;;;;;;;6.20;1.90;;;11.50;99.90;;;;;;5126709;27;20202;-80
2022/11/24 08:44:09;;;;;;;7.93;2.50;;;11.50;99.90;;;;;;5120568;27;20258;-76
2022/11/24 08:46:37;;;;;;;7.97;2.47;;;10.60;99.90;;;;;;5116350;27;20224;-75
2022/11/24 08:49:06;;;;;;;7.37;2.33;;;10.50;99.90;;;;;;5129025;27;20633;-77
2022/11/24 08:51:34;;;;;;;8.67;2.57;;;10.10;99.90;;;;;;5132829;27;20206;-74
2022/11/24 08:54:03;;;;;;;7.50;2.37;;;10.00;99.90;;;;;;5133188;27;20210;-78
2022/11/24 08:56:33;;;;;;;6.03;2.10;;;9.60;99.90;;;;;;5132538;27;20213;-77
2022/11/24 08:59:02;;;;;;;8.57;1.93;;;9.20;99.90;;;;;;5125313;27;20296;-78
2022/11/24 09:01:34;;;;;;;8.87;2.23;;;9.10;99.90;;;;;;5128699;27;20201;-80
2022/11/24 09:04:02;;;;;;;9.50;2.70;;;8.80;99.90;;;;;;5136587;27;20284;-77
2022/11/24 09:06:31;;;;;;;9.93;2.63;;;8.80;99.90;;;;;;5134694;27;20248;-78
2022/11/24 09:08:59;;;;;;;8.80;2.17;;;8.70;99.90;;;;;;5135784;27;20651;-77
2022/11/24 09:11:29;;;;;;;7.67;2.17;;;8.60;99.90;;;;;;5134993;27;20377;-79
2022/11/24 09:14:02;;;;;;;8.67;2.57;;;8.60;99.90;;;;;;5126397;27;20222;-80
2022/11/24 09:16:30;;;;;;;13.17;3.93;;;8.80;99.90;;;;;;5136708;27;20231;-74
2022/11/24 09:19:00;;;;;;;9.60;2.67;;;8.70;99.90;;;;;;5125724;27;20292;-77
2022/11/24 09:21:30;;;;;;;7.80;2.47;;;8.80;99.90;;;;;;5135603;27;20228;-76
2022/11/24 09:24:01;;;;;;;7.90;2.23;;;9.40;99.90;;;;;;5133640;27;20576;-76
2022/11/24 09:26:31;;;;;;;11.80;2.43;;;10.20;99.90;;;;;;5132144;27;20229;-76
2022/11/24 09:29:00;;;;;;;9.30;2.53;;;10.80;99.90;;;;;;5126558;27;20230;-77
2022/11/24 09:31:32;;;;;;;9.00;3.00;;;11.20;99.90;;;;;;5115364;28;20214;-77
2022/11/24 09:34:00;;;;;;;7.20;2.60;;;11.40;99.90;;;;;;5120135;27;20688;-78
2022/11/24 09:36:30;;;;;;;7.17;2.20;;;11.10;99.90;;;;;;5135805;27;20205;-76
2022/11/24 09:38:59;;;;;;;8.43;2.83;;;11.00;99.90;;;;;;5127182;27;20206;-76
2022/11/24 09:41:53;;;;;;;9.07;2.53;;;10.30;99.90;;;;;;5116834;27;20210;-75
2022/11/24 09:44:44;;;;;;;8.03;2.40;;;10.80;99.90;;;;;;5135667;27;20214;-77
2022/11/24 09:47:23;;;;;;;7.33;2.67;;;11.30;99.90;;;;;;5133625;27;20220;-77
2022/11/24 09:49:58;;;;;;;8.47;2.73;;;12.10;99.90;;;;;;5134682;27;20205;-76
2022/11/24 09:52:39;;;;;;;10.37;2.90;;;11.40;99.90;;;;;;5134837;27;20213;-76
2022/11/24 09:55:31;;;;;;;6.73;2.40;;;10.50;99.90;;;;;;5133406;27;20753;-78
2022/11/24 09:58:09;;;;;;;7.00;2.93;;;10.40;99.90;;;;;;5135357;27;20666;-76
2022/11/24 10:00:39;;;;;;;13.37;3.70;;;10.70;99.90;;;;;;5135062;27;20223;-78
2022/11/24 10:03:22;;;;;;;10.47;3.40;;;10.80;99.90;;;;;;5127850;27;20212;-76
2022/11/24 10:05:51;;;;;;;8.83;2.73;;;10.70;99.90;;;;;;5114266;28;20218;-76
2022/11/24 10:08:44;;;;;;;9.57;2.67;;;10.80;99.90;;;;;;5113604;28;20637;-76
2022/11/24 10:11:20;;;;;;;7.80;2.20;;;11.10;99.90;;;;;;5114134;27;20216;-76
2022/11/24 10:14:07;;;;;;;7.93;2.10;;;11.40;99.90;;;;;;5114204;28;20197;-78
2022/11/24 10:16:49;;;;;;;5.73;1.73;;;11.20;99.90;;;;;;5114486;28;20190;-76
2022/11/24 10:19:34;;;;;;;7.27;2.07;;;11.20;99.90;;;;;;5134769;27;20202;-77
2022/11/24 10:22:24;;;;;;;7.73;2.30;;;10.80;99.90;;;;;;5123763;28;20213;-75
2022/11/24 10:25:03;;;;;;;7.33;2.17;;;10.50;99.90;;;;;;5119180;28;20547;-76
2022/11/24 10:27:37;;;;;;;8.20;1.93;;;10.90;99.90;;;;;;5114117;28;20214;-79
2022/11/24 10:30:14;;;;;;;6.50;2.00;;;10.70;99.90;;;;;;5111607;28;20198;-77
2022/11/24 10:33:13;;;;;;;6.80;2.00;;;10.40;99.90;;;;;;5118112;27;20229;-75
2022/11/24 10:35:53;;;;;;;7.07;1.93;;;10.50;99.90;;;;;;5126913;27;20232;-77
2022/11/24 10:38:32;;;;;;;7.17;2.30;;;10.60;99.90;;;;;;5133727;27;20193;-77
2022/11/24 10:41:07;;;;;;;8.83;2.10;;;10.70;99.90;;;;;;5121042;27;20202;-78
2022/11/24 10:43:37;;;;;;;5.93;1.97;;;10.50;99.90;;;;;;5113498;28;20214;-77
2022/11/24 10:46:12;;;;;;;8.33;2.00;;;10.30;99.90;;;;;;5112517;28;20233;-76
2022/11/24 10:48:45;;;;;;;6.40;2.20;;;9.90;99.90;;;;;;5113349;28;20694;-77
2022/11/24 10:51:36;;;;;;;4.50;1.70;;;9.90;99.90;;;;;;5126986;28;20278;-78
2022/11/24 10:54:12;;;;;;;5.00;1.70;;;9.50;99.90;;;;;;5133713;28;20260;-79
2022/11/24 10:56:41;;;;;;;4.67;1.33;;;9.20;99.90;;;;;;5132469;28;20209;-77
2022/11/24 10:59:35;;;;;;;6.63;1.50;;;8.80;99.90;;;;;;5132461;28;20209;-78
2022/11/24 11:02:31;;;;;;;3.03;0.90;;;8.80;99.90;;;;;;5117903;28;20226;-77
2022/11/24 11:05:40;;;;;;;3.10;1.03;;;8.00;99.90;;;;;;5113444;28;20230;-80
2022/11/24 11:08:23;;;;;;;4.80;1.30;;;7.70;99.90;;;;;;5120382;27;20267;-78
2022/11/24 11:11:11;;;;;;;3.47;1.50;;;7.40;99.90;;;;;;5143306;27;20223;-78
2022/11/24 11:13:51;;;;;;;3.60;1.10;;;7.10;99.90;;;;;;5154329;27;20292;-77
2022/11/24 11:16:32;;;;;;;4.47;1.30;;;7.00;99.90;;;;;;5119217;28;20193;-76
2022/11/24 11:19:02;;;;;;;4.00;1.17;;;6.80;99.90;;;;;;5115968;28;20201;-77
2022/11/24 11:22:00;;;;;;;4.47;1.40;;;6.70;99.90;;;;;;5116666;27;20206;-76
2022/11/24 11:24:30;;;;;;;1.73;0.90;;;6.60;99.90;;;;;;5130692;27;20221;-75
2022/11/24 11:27:05;;;;;;;2.43;1.17;;;6.50;99.90;;;;;;5127404;27;20293;-75
2022/11/24 11:29:33;;;;;;;3.73;1.30;;;6.50;99.90;;;;;;5131502;27;20236;-74
2022/11/24 11:32:24;;;;;;;1.93;1.30;;;6.50;99.90;;;;;;5136194;27;20683;-76
2022/11/24 11:35:13;;;;;;;4.37;1.30;;;6.50;99.90;;;;;;5135593;27;20678;-74
2022/11/24 11:38:06;;;;;;;4.77;1.70;;;6.70;99.90;;;;;;5136540;27;20193;-75
2022/11/24 11:40:36;;;;;;;5.00;1.40;;;6.70;99.90;;;;;;5136655;27;20216;-75
2022/11/24 11:43:13;;;;;;;4.60;1.20;;;6.80;99.90;;;;;;5128091;27;20563;-76
2022/11/24 11:45:45;;;;;;;4.80;1.50;;;6.80;99.90;;;;;;5145342;27;20225;-78
2022/11/24 11:48:25;;;;;;;4.67;1.80;;;6.90;99.90;;;;;;5158139;27;20205;-74
2022/11/24 11:51:00;;;;;;;5.47;2.00;;;6.80;99.90;;;;;;5145516;27;20206;-76
2022/11/24 11:53:56;;;;;;;7.43;2.03;;;6.90;99.90;;;;;;5120608;28;20214;-77
2022/11/24 11:56:29;;;;;;;8.50;2.37;;;7.10;99.90;;;;;;5118114;27;20289;-75
2022/11/24 11:59:30;;;;;;;5.37;1.83;;;7.10;99.90;;;;;;5121951;27;20220;-75
2022/11/24 12:02:29;;;;;;;3.53;1.50;;;7.30;99.90;;;;;;5116163;28;20585;-74
2022/11/24 12:05:00;;;;;;;5.43;1.73;;;7.40;99.90;;;;;;5116002;28;20206;-76
2022/11/24 12:07:52;;;;;;;4.47;1.90;;;7.40;99.90;;;;;;5116929;27;20535;-76
2022/11/24 12:10:30;;;;;;;4.13;1.60;;;7.40;99.90;;;;;;5115543;28;20202;-77
2022/11/24 12:13:22;;;;;;;5.67;1.50;;;7.30;99.90;;;;;;5115150;28;20197;-75
2022/11/24 12:15:53;;;;;;;5.47;1.73;;;7.30;99.90;;;;;;5118368;27;20388;-77
2022/11/24 12:18:34;;;;;;;2.17;1.20;;;7.40;99.90;;;;;;5115106;27;20213;-78
2022/11/24 12:21:29;;;;;;;2.80;1.20;;;7.40;99.90;;;;;;5125948;27;20277;-75
2022/11/24 12:24:11;;;;;;;3.07;1.30;;;7.40;99.90;;;;;;5133323;27;20213;-74
2022/11/24 12:26:42;;;;;;;3.20;1.37;;;7.60;99.90;;;;;;5115162;28;20732;-77
2022/11/24 12:29:31;;;;;;;5.37;1.70;;;7.50;99.90;;;;;;5115314;27;20209;-77
2022/11/24 12:32:09;;;;;;;6.67;1.63;;;7.60;99.90;;;;;;5122688;27;20217;-77
2022/11/24 12:34:49;;;;;;;4.87;1.40;;;7.70;99.90;;;;;;5123764;27;20659;-77
2022/11/24 12:37:32;;;;;;;4.10;1.40;;;7.60;99.90;;;;;;5136145;27;20247;-76
2022/11/24 12:40:05;;;;;;;4.33;1.33;;;7.60;99.90;;;;;;5121502;27;20244;-76
2022/11/24 12:42:43;;;;;;;3.43;1.40;;;7.70;99.90;;;;;;5121386;27;20202;-79
2022/11/24 12:45:16;;;;;;;3.83;1.50;;;7.70;99.90;;;;;;5123974;27;20225;-74
2022/11/24 12:48:09;;;;;;;4.07;1.50;;;7.60;99.90;;;;;;5132805;27;20217;-75
2022/11/24 12:50:43;;;;;;;5.90;1.50;;;7.70;99.90;;;;;;5135533;27;20194;-75
2022/11/24 12:53:15;;;;;;;4.10;1.43;;;7.70;99.90;;;;;;5119318;27;20216;-75
2022/11/24 12:55:44;;;;;;;4.37;1.70;;;7.60;99.90;;;;;;5124451;27;20185;-81
2022/11/24 12:58:20;;;;;;;5.20;1.83;;;7.70;99.90;;;;;;5123310;27;20202;-76
2022/11/24 13:01:03;;;;;;;4.43;1.80;;;7.60;99.90;;;;;;5131074;27;20587;-77
2022/11/24 13:03:41;;;;;;;2.70;1.30;;;7.70;99.90;;;;;;5133282;27;20198;-76
2022/11/24 13:06:16;;;;;;;4.03;1.10;;;7.70;99.90;;;;;;5118960;27;20228;-75
2022/11/24 13:08:47;;;;;;;3.33;1.10;;;7.70;99.90;;;;;;5126925;27;20551;-74
2022/11/24 13:11:49;;;;;;;3.57;1.30;;;7.70;99.90;;;;;;5136964;27;20214;-77
2022/11/24 13:14:22;;;;;;;2.83;1.00;;;7.70;99.90;;;;;;5033424;28;20679;-75
2022/11/24 13:16:57;;;;;;;2.30;1.20;;;7.70;99.90;;;;;;5036558;28;20213;-75
2022/11/24 13:19:46;;;;;;;2.73;1.10;;;7.60;99.90;;;;;;5087410;27;20637;-77
2022/11/24 13:22:18;;;;;;;4.00;1.40;;;7.50;99.90;;;;;;5122767;27;20311;-75
2022/11/24 13:25:09;;;;;;;3.90;1.67;;;7.50;99.90;;;;;;5126368;27;20290;-75
2022/11/24 13:27:45;;;;;;;2.50;1.40;;;7.40;99.90;;;;;;5139184;27;20236;-75